createdAt,value
2024-05-09T00:00:39.886Z,101232.94
2024-05-09T00:03:09.254Z,101242.47
2024-05-09T00:05:37.587Z,101240.78
2024-05-09T00:08:05.007Z,101239.94
2024-05-09T00:10:36.686Z,101229.50
2024-05-09T00:13:07.163Z,101233.00
2024-05-09T00:15:35.043Z,101228.69
2024-05-09T00:18:03.266Z,101227.84
2024-05-09T00:20:37.643Z,101227.84
2024-05-09T00:23:08.115Z,101243.53
2024-05-09T00:25:35.547Z,101246.16
2024-05-09T00:28:02.995Z,101247.03
2024-05-09T00:30:34.602Z,101238.31
2024-05-09T00:33:05.522Z,101244.41
2024-05-09T00:35:33.728Z,101247.03
2024-05-09T00:38:00.984Z,101241.81
2024-05-09T00:40:39.068Z,101240.97
2024-05-09T00:43:08.954Z,101240.06
2024-05-09T00:45:36.021Z,101239.19
2024-05-09T00:48:07.532Z,101240.00
2024-05-09T00:50:37.929Z,101233.06
2024-05-09T00:53:11.789Z,101218.25
2024-05-09T00:55:40.233Z,101228.69
2024-05-09T00:58:10.814Z,101224.34
2024-05-09T01:00:40.231Z,101225.19
2024-05-09T01:03:13.354Z,101238.22
2024-05-09T01:05:42.528Z,101235.59
2024-05-09T01:08:10.987Z,101229.47
2024-05-09T01:10:38.583Z,101232.09
2024-05-09T01:13:06.569Z,101232.94
2024-05-09T01:15:34.574Z,101228.59
2024-05-09T01:18:06.746Z,101232.91
2024-05-09T01:20:41.065Z,101232.91
2024-05-09T01:23:11.445Z,101229.41
2024-05-09T01:25:38.688Z,101217.25
2024-05-09T01:28:06.156Z,101216.34
2024-05-09T01:30:35.907Z,101214.59
2024-05-09T01:33:07.233Z,101217.19
2024-05-09T01:35:36.192Z,101221.50
2024-05-09T01:38:03.273Z,101216.28
2024-05-09T01:40:37.253Z,101224.03
2024-05-09T01:43:10.968Z,101206.66
2024-05-09T01:45:41.974Z,101221.41
2024-05-09T01:48:09.652Z,101222.25
2024-05-09T01:50:40.711Z,101218.75
2024-05-09T01:53:10.735Z,101217.84
2024-05-09T01:55:37.672Z,101221.28
2024-05-09T01:58:04.771Z,101212.59
2024-05-09T02:00:38.788Z,101220.41
2024-05-09T02:03:11.528Z,101213.41
2024-05-09T02:05:41.404Z,101213.38
2024-05-09T02:08:14.964Z,101203.81
2024-05-09T02:10:42.282Z,101206.41
2024-05-09T02:13:09.485Z,101209.84
2024-05-09T02:15:36.390Z,101214.19
2024-05-09T02:18:03.528Z,101215.91
2024-05-09T02:20:35.967Z,101215.91
2024-05-09T02:23:06.170Z,101222.00
2024-05-09T02:25:33.558Z,101222.00
2024-05-09T02:28:00.347Z,101215.06
2024-05-09T02:30:37.742Z,101213.31
2024-05-09T02:33:08.698Z,101206.41
2024-05-09T02:35:36.496Z,101197.72
2024-05-09T02:38:03.710Z,101203.81
2024-05-09T02:40:36.776Z,101199.44
2024-05-09T02:43:06.639Z,101193.41
2024-05-09T02:45:33.702Z,101205.53
2024-05-09T02:48:01.693Z,101208.16
2024-05-09T02:50:34.749Z,101212.50
2024-05-09T02:53:05.952Z,101215.97
2024-05-09T02:55:33.173Z,101204.69
2024-05-09T02:58:00.185Z,101206.44
2024-05-09T03:00:36.302Z,101219.44
2024-05-09T03:03:11.862Z,101209.03
2024-05-09T03:05:42.093Z,101215.09
2024-05-09T03:08:09.469Z,101222.00
2024-05-09T03:10:38.518Z,101220.25
2024-05-09T03:13:12.900Z,101217.66
2024-05-09T03:15:41.039Z,101223.72
2024-05-09T03:18:07.962Z,101221.09
2024-05-09T03:20:36.228Z,101214.97
2024-05-09T03:23:05.479Z,101214.06
2024-05-09T03:25:32.842Z,101219.25
2024-05-09T03:27:59.845Z,101215.72
2024-05-09T03:30:38.659Z,101208.75
2024-05-09T03:33:18.616Z,101212.19
2024-05-09T03:35:47.388Z,101213.88
2024-05-09T03:38:14.498Z,101210.38
2024-05-09T03:40:49.321Z,101214.69
2024-05-09T03:43:17.353Z,101221.59
2024-05-09T03:45:44.459Z,101225.91
2024-05-09T03:48:11.857Z,101223.28
2024-05-09T03:50:39.229Z,101225.84
2024-05-09T03:53:09.580Z,101220.63
2024-05-09T03:55:36.585Z,101211.06
2024-05-09T03:58:03.492Z,101219.66
2024-05-09T04:00:36.909Z,101210.09
2024-05-09T04:03:11.088Z,101210.03
2024-05-09T04:05:44.577Z,101210.00
2024-05-09T04:08:13.215Z,101210.81
2024-05-09T04:10:41.139Z,101205.56
2024-05-09T04:13:08.189Z,101202.94
2024-05-09T04:15:34.996Z,101207.22
2024-05-09T04:18:02.490Z,101201.16
2024-05-09T04:20:37.412Z,101200.25
2024-05-09T04:23:08.814Z,101197.63
2024-05-09T04:25:36.311Z,101207.97
2024-05-09T04:28:03.282Z,101204.47
2024-05-09T04:30:36.794Z,101200.97
2024-05-09T04:33:08.846Z,101206.16
2024-05-09T04:35:38.572Z,101207.84
2024-05-09T04:38:06.155Z,101207.78
2024-05-09T04:40:36.041Z,101206.03
2024-05-09T04:43:13.660Z,101203.41
2024-05-09T04:45:40.911Z,101197.34
2024-05-09T04:48:08.302Z,101199.06
2024-05-09T04:50:38.270Z,101199.97
2024-05-09T04:53:09.474Z,101205.16
2024-05-09T04:55:37.729Z,101206.03
2024-05-09T04:58:05.785Z,101208.72
2024-05-09T05:00:37.118Z,101209.59
2024-05-09T05:03:08.137Z,101212.22
2024-05-09T05:05:43.550Z,101211.41
2024-05-09T05:08:15.291Z,101208.84
2024-05-09T05:10:43.699Z,101204.59
2024-05-09T05:13:25.028Z,101200.28
2024-05-09T05:15:56.576Z,101198.59
2024-05-09T05:18:26.066Z,101201.25
2024-05-09T05:20:53.826Z,101210.00
2024-05-09T05:23:22.555Z,101197.06
2024-05-09T05:25:51.415Z,101200.59
2024-05-09T05:28:19.187Z,101211.09
2024-05-09T05:30:46.534Z,101218.97
2024-05-09T05:33:15.420Z,101218.16
2024-05-09T05:35:42.709Z,101217.38
2024-05-09T05:38:11.032Z,101220.88
2024-05-09T05:40:39.136Z,101226.09
2024-05-09T05:43:11.018Z,101216.59
2024-05-09T05:45:39.218Z,101226.16
2024-05-09T05:48:07.848Z,101227.06
2024-05-09T05:50:37.493Z,101211.47
2024-05-09T05:53:07.380Z,101213.28
2024-05-09T05:55:35.237Z,101213.34
2024-05-09T05:58:02.922Z,101211.66
2024-05-09T06:00:37.358Z,101211.69
2024-05-09T06:03:06.753Z,101218.66
2024-05-09T06:05:33.890Z,101216.13
2024-05-09T06:08:00.988Z,101215.31
2024-05-09T06:10:37.183Z,101217.13
2024-05-09T06:13:07.073Z,101214.59
2024-05-09T06:15:33.975Z,101213.75
2024-05-09T06:18:01.183Z,101219.00
2024-05-09T06:20:35.486Z,101209.47
2024-05-09T06:23:08.588Z,101219.06
2024-05-09T06:25:36.278Z,101220.84
2024-05-09T06:28:03.783Z,101216.53
2024-05-09T06:30:38.556Z,101217.41
2024-05-09T06:33:10.091Z,101210.47
2024-05-09T06:35:38.362Z,101211.38
2024-05-09T06:38:06.272Z,101213.97
2024-05-09T06:40:37.885Z,101219.16
2024-05-09T06:43:18.703Z,101203.47
2024-05-09T06:45:48.676Z,101210.44
2024-05-09T06:48:18.408Z,101206.94
2024-05-09T06:50:45.745Z,101213.00
2024-05-09T06:53:17.011Z,101209.50
2024-05-09T06:55:43.944Z,101206.00
2024-05-09T06:58:10.792Z,101207.72
2024-05-09T07:00:40.505Z,101203.31
2024-05-09T07:03:11.426Z,101207.63
2024-05-09T07:05:39.690Z,101214.63
2024-05-09T07:08:07.122Z,101208.44
2024-05-09T07:10:36.136Z,101212.69
2024-05-09T07:13:12.130Z,101203.03
2024-05-09T07:15:40.241Z,101204.69
2024-05-09T07:18:18.488Z,101201.06
2024-05-09T07:20:47.876Z,101194.81
2024-05-09T07:23:16.404Z,101191.22
2024-05-09T07:25:47.151Z,101186.78
2024-05-09T07:28:19.481Z,101195.50
2024-05-09T07:30:47.581Z,101188.53
2024-05-09T07:33:20.039Z,101192.78
2024-05-09T07:35:48.438Z,101199.69
2024-05-09T07:38:18.486Z,101191.78
2024-05-09T07:40:47.088Z,101190.91
2024-05-09T07:43:17.618Z,101192.56
2024-05-09T07:45:52.496Z,101178.44
2024-05-09T07:52:38.267Z,101186.06
2024-05-09T07:53:47.157Z,101195.56
2024-05-09T07:56:19.696Z,101185.84
2024-05-09T07:58:51.755Z,101197.13
2024-05-09T08:01:20.885Z,101194.50
2024-05-09T08:03:50.897Z,101189.22
2024-05-09T08:06:19.163Z,101188.31
2024-05-09T08:08:48.290Z,101190.91
2024-05-09T08:11:24.185Z,101185.53
2024-05-09T08:13:59.600Z,101184.59
2024-05-09T08:16:28.090Z,101186.28
2024-05-09T08:18:56.015Z,101187.06
2024-05-09T08:21:24.596Z,101185.25
2024-05-09T08:23:53.566Z,101185.13
2024-05-09T08:26:22.882Z,101187.63
2024-05-09T08:28:51.845Z,101196.28
2024-05-09T08:31:21.656Z,101200.53
2024-05-09T08:33:52.794Z,101193.47
2024-05-09T08:36:21.441Z,101196.03
2024-05-09T08:38:49.346Z,101195.91
2024-05-09T08:41:18.689Z,101195.91
2024-05-09T08:43:47.910Z,101197.66
2024-05-09T08:46:19.398Z,101199.47
2024-05-09T08:48:50.682Z,101192.44
2024-05-09T08:51:19.398Z,101199.44
2024-05-09T08:53:47.625Z,101189.75
2024-05-09T08:56:17.285Z,101191.50
2024-05-09T08:58:46.599Z,101196.69
2024-05-09T09:01:15.407Z,101201.88
2024-05-09T09:03:46.101Z,101187.88
2024-05-09T09:06:18.732Z,101191.25
2024-05-09T09:08:47.274Z,101193.72
2024-05-09T09:11:16.413Z,101188.38
2024-05-09T09:13:44.838Z,101190.06
2024-05-09T09:16:13.501Z,101182.13
2024-05-09T09:18:47.085Z,101180.31
2024-05-09T09:21:15.693Z,101181.19
2024-05-09T09:23:44.818Z,101187.28
2024-05-09T09:26:16.903Z,101183.69
2024-05-09T09:28:48.126Z,101181.06
2024-05-09T09:31:20.532Z,101174.91
2024-05-09T09:33:48.389Z,101181.81
2024-05-09T09:36:16.439Z,101179.06
2024-05-09T09:38:47.390Z,101169.44
2024-05-09T09:41:20.574Z,101177.19
2024-05-09T09:43:49.208Z,101173.63
2024-05-09T09:46:19.142Z,101170.97
2024-05-09T09:48:49.407Z,101171.81
2024-05-09T09:51:17.886Z,101176.91
2024-05-09T09:53:46.790Z,101181.91
2024-05-09T09:56:18.184Z,101179.16
2024-05-09T09:58:47.164Z,101179.16
2024-05-09T10:01:14.994Z,101179.16
2024-05-09T10:03:43.941Z,101183.56
2024-05-09T10:06:13.596Z,101177.25
2024-05-09T10:08:43.236Z,101171.84
2024-05-09T10:11:11.924Z,101170.84
2024-05-09T10:13:42.935Z,101173.41
2024-05-09T10:16:12.322Z,101175.13
2024-05-09T10:18:42.995Z,101175.97
2024-05-09T10:21:21.059Z,101160.16
2024-05-09T10:24:08.392Z,101167.97
2024-05-09T10:26:38.202Z,101169.63
2024-05-09T10:29:15.054Z,101175.47
2024-05-09T10:31:45.622Z,101169.91
2024-05-09T10:34:22.672Z,101176.72
2024-05-09T10:36:55.366Z,101174.00
2024-05-09T10:39:24.235Z,101182.75
2024-05-09T10:41:52.724Z,101180.94
2024-05-09T10:44:23.598Z,101167.00
2024-05-09T10:46:52.661Z,101180.22
2024-05-09T10:49:21.717Z,101171.38
2024-05-09T10:51:51.739Z,101169.50
2024-05-09T10:54:20.046Z,101164.09
2024-05-09T10:56:56.403Z,101163.09
2024-05-09T10:59:24.779Z,101160.44
2024-05-09T11:01:53.521Z,101166.56
2024-05-09T11:04:22.110Z,101169.13
2024-05-09T11:06:50.535Z,101166.38
2024-05-09T11:09:20.099Z,101156.56
2024-05-09T11:11:48.597Z,101161.72
2024-05-09T11:14:18.027Z,101158.19
2024-05-09T11:16:46.076Z,101154.72
2024-05-09T11:19:15.123Z,101157.19
2024-05-09T11:21:43.436Z,101150.13
2024-05-09T11:24:11.952Z,101153.56
2024-05-09T11:26:40.206Z,101145.63
2024-05-09T11:29:08.449Z,101151.66
2024-05-09T11:31:48.645Z,101143.66
2024-05-09T11:34:17.231Z,101137.53
2024-05-09T11:36:45.439Z,101135.75
2024-05-09T11:39:15.545Z,101126.78
2024-05-09T11:41:43.108Z,101131.94
2024-05-09T11:44:11.660Z,101131.94
2024-05-09T11:46:40.000Z,101130.31
2024-05-09T11:49:10.115Z,101125.03
2024-05-09T11:51:38.888Z,101123.91
2024-05-09T11:54:07.338Z,101115.06
2024-05-09T11:56:35.271Z,101113.16
2024-05-09T11:59:03.555Z,101105.88
2024-05-09T12:01:31.558Z,101105.72
2024-05-09T12:03:59.870Z,101101.28
2024-05-09T12:06:28.040Z,101113.50
2024-05-09T12:08:57.212Z,101109.91
2024-05-09T12:11:25.085Z,101100.50
2024-05-09T12:13:53.634Z,101107.38
2024-05-09T12:16:22.164Z,101104.47
2024-05-09T12:18:50.361Z,101105.13
2024-05-09T12:21:18.584Z,101098.94
2024-05-09T12:23:46.775Z,101090.97
2024-05-09T12:26:16.646Z,101096.59
2024-05-09T12:28:45.267Z,101088.00
2024-05-09T12:31:13.386Z,101080.72
2024-05-09T12:33:41.108Z,101081.25
2024-05-09T12:36:09.037Z,101085.69
2024-05-09T12:38:37.355Z,101079.66
2024-05-09T12:41:06.231Z,101072.66
2024-05-09T12:43:34.433Z,101076.09
2024-05-09T12:46:04.424Z,101072.47
2024-05-09T12:48:33.074Z,101076.88
2024-05-09T12:51:02.339Z,101061.09
2024-05-09T12:53:30.605Z,101068.00
2024-05-09T12:56:02.261Z,101067.09
2024-05-09T12:58:32.893Z,101076.47
2024-05-09T13:01:01.958Z,101062.38
2024-05-09T13:03:31.260Z,101057.78
2024-05-09T13:05:59.976Z,101057.75
2024-05-09T13:08:28.599Z,101054.09
2024-05-09T13:10:57.806Z,101057.38
2024-05-09T13:13:28.086Z,101061.59
2024-05-09T13:15:57.155Z,101043.03
2024-05-09T13:18:26.232Z,101049.16
2024-05-09T13:20:55.234Z,101042.88
2024-05-09T13:23:26.614Z,101041.91
2024-05-09T13:25:55.776Z,101045.19
2024-05-09T13:28:24.556Z,101041.63
2024-05-09T13:30:53.736Z,101046.09
2024-05-09T13:33:24.389Z,101037.03
2024-05-09T13:35:53.870Z,101026.25
2024-05-09T13:38:23.309Z,101029.00
2024-05-09T13:40:51.904Z,101029.19
2024-05-09T13:43:24.592Z,101039.88
2024-05-09T13:45:56.332Z,101035.53
2024-05-09T13:48:28.241Z,101023.19
2024-05-09T13:50:58.174Z,101030.22
2024-05-09T13:53:30.516Z,101024.06
2024-05-09T13:56:00.048Z,101023.09
2024-05-09T13:58:29.196Z,101022.81
2024-05-09T14:00:59.446Z,101025.25
2024-05-09T14:03:30.579Z,101024.88
2024-05-09T14:05:59.428Z,101018.59
2024-05-09T14:08:28.951Z,101016.19
2024-05-09T14:10:58.457Z,101012.88
2024-05-09T14:13:28.745Z,101006.63
2024-05-09T14:15:59.278Z,101004.81
2024-05-09T14:18:29.236Z,101004.59
2024-05-09T14:20:58.945Z,101007.06
2024-05-09T14:23:27.398Z,101007.06
2024-05-09T14:25:56.497Z,101000.97
2024-05-09T14:28:27.566Z,100999.06
2024-05-09T14:30:57.576Z,101001.56
2024-05-09T14:33:27.847Z,100990.97
2024-05-09T14:35:56.303Z,100994.31
2024-05-09T14:38:26.092Z,100981.28
2024-05-09T14:40:56.006Z,100987.59
2024-05-09T14:43:25.208Z,100983.16
2024-05-09T14:45:54.595Z,100978.81
2024-05-09T14:48:24.150Z,100976.97
2024-05-09T14:50:52.624Z,100973.41
2024-05-09T14:53:20.849Z,100973.50
2024-05-09T14:55:50.712Z,100964.50
2024-05-09T14:58:21.573Z,100959.84
2024-05-09T15:00:51.366Z,100957.13
2024-05-09T15:03:22.350Z,100956.94
2024-05-09T15:05:51.879Z,100952.47
2024-05-09T15:08:21.147Z,100947.91
2024-05-09T15:10:53.305Z,100947.00
2024-05-09T15:13:23.175Z,100940.06
2024-05-09T15:15:50.940Z,100944.66
2024-05-09T15:18:21.341Z,100945.56
2024-05-09T15:20:51.656Z,100947.41
2024-05-09T15:23:20.613Z,100939.41
2024-05-09T15:25:48.596Z,100928.78
2024-05-09T15:28:17.054Z,100939.19
2024-05-09T15:30:46.855Z,100938.22
2024-05-09T15:33:15.354Z,100933.72
2024-05-09T15:35:44.084Z,100931.94
2024-05-09T15:38:12.568Z,100926.66
2024-05-09T15:40:41.297Z,100921.34
2024-05-09T15:43:11.561Z,100921.38
2024-05-09T15:45:41.360Z,100924.06
2024-05-09T15:48:12.400Z,100919.59
2024-05-09T15:50:42.484Z,100914.22
2024-05-09T15:53:13.314Z,100909.94
2024-05-09T15:55:43.423Z,100914.53
2024-05-09T15:58:11.604Z,100911.88
2024-05-09T16:00:42.334Z,100915.56
2024-05-09T16:03:13.965Z,100911.94
2024-05-09T16:05:47.797Z,100915.44
2024-05-09T16:08:17.211Z,100924.25
2024-05-09T16:10:46.831Z,100921.53
2024-05-09T16:13:17.864Z,100911.88
2024-05-09T16:15:47.153Z,100915.44
2024-05-09T16:18:16.283Z,100919.06
2024-05-09T16:20:46.466Z,100914.66
2024-05-09T16:23:17.127Z,100918.28
2024-05-09T16:25:48.725Z,100912.13
2024-05-09T16:28:17.208Z,100913.72
2024-05-09T16:30:45.960Z,100908.31
2024-05-09T16:33:14.763Z,100908.22
2024-05-09T16:35:43.181Z,100898.50
2024-05-09T16:38:13.796Z,100899.34
2024-05-09T16:40:43.530Z,100898.63
2024-05-09T16:43:13.524Z,100898.78
2024-05-09T16:45:45.183Z,100901.38
2024-05-09T16:48:14.907Z,100894.31
2024-05-09T16:50:43.403Z,100897.13
2024-05-09T16:53:11.186Z,100900.81
2024-05-09T16:55:39.713Z,100891.97
2024-05-09T16:58:13.138Z,100897.38
2024-05-09T17:00:43.732Z,100889.69
2024-05-09T17:03:16.172Z,100890.66
2024-05-09T17:05:47.472Z,100889.94
2024-05-09T17:08:20.451Z,100885.50
2024-05-09T17:10:49.912Z,100881.94
2024-05-09T17:13:19.700Z,100886.25
2024-05-09T17:15:49.431Z,100881.81
2024-05-09T17:18:21.248Z,100882.81
2024-05-09T17:20:58.527Z,100890.56
2024-05-09T17:23:28.164Z,100889.63
2024-05-09T17:25:57.296Z,100884.28
2024-05-09T17:28:27.827Z,100881.66
2024-05-09T17:30:56.872Z,100887.72
2024-05-09T17:33:25.334Z,100877.09
2024-05-09T17:35:54.054Z,100884.06
2024-05-09T17:38:26.752Z,100884.94
2024-05-09T17:40:59.790Z,100887.53
2024-05-09T17:43:31.025Z,100879.53
2024-05-09T17:46:01.475Z,100897.19
2024-05-09T17:48:30.796Z,100889.34
2024-05-09T17:50:59.329Z,100891.97
2024-05-09T17:53:27.859Z,100886.66
2024-05-09T17:55:57.294Z,100880.47
2024-05-09T17:58:25.854Z,100888.44
2024-05-09T18:00:56.155Z,100888.53
2024-05-09T18:03:26.181Z,100892.03
2024-05-09T18:05:56.940Z,100888.41
2024-05-09T18:08:28.073Z,100885.63
2024-05-09T18:11:04.565Z,100889.50
2024-05-09T18:16:02.460Z,100893.91
2024-05-09T18:18:32.954Z,100895.28
2024-05-09T18:21:02.733Z,100898.66
2024-05-09T18:23:34.374Z,100895.56
2024-05-09T18:26:11.447Z,100909.09
2024-05-09T18:28:44.445Z,100904.19
2024-05-09T18:31:14.667Z,100906.19
2024-05-09T18:33:43.694Z,100911.69
2024-05-09T18:36:14.145Z,100908.34
2024-05-09T18:38:47.733Z,100905.91
2024-05-09T18:41:23.718Z,100912.38
2024-05-09T18:43:56.280Z,100908.13
2024-05-09T18:46:25.968Z,100916.19
2024-05-09T18:48:55.535Z,100904.00
2024-05-09T18:51:25.831Z,100908.53
2024-05-09T18:53:59.279Z,100913.94
2024-05-09T18:56:31.519Z,100914.03
2024-05-09T18:59:01.887Z,100915.09
2024-05-09T19:01:31.893Z,100914.34
2024-05-09T19:04:03.141Z,100912.72
2024-05-09T19:06:32.430Z,100907.53
2024-05-09T19:09:01.707Z,100909.41
2024-05-09T19:11:33.057Z,100916.56
2024-05-09T19:14:05.366Z,100918.50
2024-05-09T19:16:34.572Z,100915.13
2024-05-09T19:19:06.802Z,100921.53
2024-05-09T19:21:33.968Z,100919.94
2024-05-09T19:24:01.712Z,100926.22
2024-05-09T19:26:29.693Z,100917.63
2024-05-09T19:28:57.280Z,100912.59
2024-05-09T19:36:34.853Z,100913.94
2024-05-09T19:39:02.635Z,100917.66
2024-05-09T19:41:30.539Z,100923.16
2024-05-09T19:43:58.380Z,100932.16
2024-05-09T19:46:26.181Z,100929.69
2024-05-09T19:48:54.526Z,100934.25
2024-05-09T19:51:22.774Z,100936.09
2024-05-09T19:53:51.412Z,100934.50
2024-05-09T19:56:19.631Z,100928.50
2024-05-09T19:58:47.649Z,100927.88
2024-05-09T20:01:15.527Z,100930.66
2024-05-09T20:03:43.426Z,100929.09
2024-05-09T20:06:11.791Z,100926.63
2024-05-09T20:08:39.952Z,100930.28
2024-05-09T20:11:08.017Z,100933.03
2024-05-09T20:13:37.245Z,100940.19
2024-05-09T20:16:05.458Z,100942.94
2024-05-09T20:18:33.384Z,100939.63
2024-05-09T20:21:02.838Z,100944.22
2024-05-09T20:23:30.612Z,100934.00
2024-05-09T20:25:58.293Z,100936.03
2024-05-09T20:28:26.270Z,100937.22
2024-05-09T20:30:54.265Z,100944.47
2024-05-09T20:33:22.326Z,100947.34
2024-05-09T20:35:51.133Z,100941.47
2024-05-09T20:38:19.470Z,100946.13
2024-05-09T20:40:48.057Z,100942.84
2024-05-09T20:43:16.781Z,100944.84
2024-05-09T20:45:45.197Z,100948.53
2024-05-09T20:48:13.797Z,100953.19
2024-05-09T20:50:42.792Z,100945.53
2024-05-09T20:53:14.251Z,100949.22
2024-05-09T20:55:44.227Z,100947.56
2024-05-09T20:58:12.824Z,100949.47
2024-05-09T21:00:43.807Z,100949.69
2024-05-09T21:03:16.124Z,100954.22
2024-05-09T21:05:51.622Z,100947.38
2024-05-09T21:08:19.479Z,100955.34
2024-05-09T21:10:46.966Z,100956.31
2024-05-09T21:13:15.055Z,100950.34
2024-05-09T21:15:42.663Z,100944.31
2024-05-09T21:18:10.642Z,100954.06
2024-05-09T21:20:37.844Z,100948.91
2024-05-09T21:23:05.795Z,100949.03
2024-05-09T21:25:33.190Z,100949.13
2024-05-09T21:28:01.589Z,100951.84
2024-05-09T21:30:38.548Z,100951.03
2024-05-09T21:33:11.251Z,100954.59
2024-05-09T21:35:41.090Z,100952.06
2024-05-09T21:38:08.561Z,100949.56
2024-05-09T21:40:36.784Z,100966.19
2024-05-09T21:43:05.529Z,100959.28
2024-05-09T21:45:33.187Z,100957.63
2024-05-09T21:48:00.786Z,100960.31
2024-05-09T21:50:35.915Z,100957.75
2024-05-09T21:53:07.537Z,100956.06
2024-05-09T21:55:35.210Z,100954.34
2024-05-09T21:58:03.400Z,100959.66
2024-05-09T22:00:36.871Z,100958.81
2024-05-09T22:03:10.610Z,100958.00
2024-05-09T22:05:42.483Z,100951.06
2024-05-09T22:08:09.599Z,100952.88
2024-05-09T22:10:37.575Z,100950.28
2024-05-09T22:13:06.662Z,100946.84
2024-05-09T22:15:39.333Z,100946.03
2024-05-09T22:18:09.021Z,100947.84
2024-05-09T22:20:39.425Z,100947.88
2024-05-09T22:23:08.714Z,100947.91
2024-05-09T22:25:36.921Z,100948.81
2024-05-09T22:28:05.174Z,100944.44
2024-05-09T22:30:37.112Z,100938.41
2024-05-09T22:33:07.792Z,100939.31
2024-05-09T22:35:34.966Z,100940.25
2024-05-09T22:38:03.076Z,100937.66
2024-05-09T22:40:38.942Z,100940.31
2024-05-09T22:43:13.853Z,100942.06
2024-05-09T22:45:41.249Z,100944.69
2024-05-09T22:48:09.007Z,100950.84
2024-05-09T22:50:36.201Z,100933.44
2024-05-09T22:53:03.032Z,100943.03
2024-05-09T22:55:30.162Z,100954.41
2024-05-09T22:57:57.170Z,100950.97
2024-05-09T23:02:53.919Z,100952.72
2024-05-09T23:05:20.910Z,100951.88
2024-05-09T23:07:47.745Z,100952.78
2024-05-09T23:10:21.264Z,100951.94
2024-05-09T23:12:54.888Z,100946.72
2024-05-09T23:15:21.903Z,100940.66
2024-05-09T23:17:48.871Z,100949.38
2024-05-09T23:20:21.716Z,100945.91
2024-05-09T23:22:55.922Z,100940.72
2024-05-09T23:25:22.806Z,100940.75
2024-05-09T23:27:49.750Z,100938.16
2024-05-09T23:30:28.314Z,100946.88
2024-05-09T23:33:01.361Z,100946.00
2024-05-09T23:35:28.363Z,100939.06
2024-05-09T23:37:55.147Z,100944.31
2024-05-09T23:40:23.474Z,100946.06
2024-05-09T23:42:50.874Z,100950.38
2024-05-09T23:45:17.751Z,100946.91
2024-05-09T23:47:44.834Z,100949.53
2024-05-09T23:50:16.951Z,100947.81
2024-05-09T23:52:50.594Z,100951.25
2024-05-09T23:55:17.668Z,100938.22
2024-05-09T23:57:44.739Z,100945.19
